Aérodrome :
LOGIN :

S'inscrire | Disclaimer

   EN    FR    IT 

 










Légende :    VFR   VFR Marginal   IFR   IFR Intensif   IFR Très Intensif
Visi : 
Plafond : 
>= 8 km
>= 3000ft
5 à 8 km
1000 à 3000 ft
1500m à 5 km
500 à 1000 ft
800 à 1500m
200 à 500 ft
< 800m
< 200 ft
Symboles :   Orages  Brouillard  Fortes neiges  Fortes précipitations  Vent > 20 kt
SIGMETs :   Divers  Orages  Givrage  Turbulence  Onde Orograph.  Cendres Volcan.






- Altitude de l'aérodrome : 1234 ft
- Code IATA : LUX


ELLX - Luxembourg Findel

DERNIER METAR :
  • 031850Z VRB04KT 8000 2000NE TSRA SCT013 BKN052CB 15/13 Q1002 TEMPO 1500 TSRA SCT015 BKN040CB

METARs EXPIRÉS :
  • 031820Z 15005KT 090V210 2000 +TSRA SCT013 BKN052CB 14/13 Q1003 TEMPO 1500 TSRA SCT015 BKN040CB
  • 031750Z 13008KT 040V200 9999 4000SW SCT053CB BKN055 22/10 Q1002 TEMPO TSRA SCT040CB
  • 031720Z 36007KT 320V050 9999 VCSH FEW080CB 23/10 Q1002 TEMPO SHRA SCT040CB
  • 031650Z 01007KT 310V040 CAVOK 23/10 Q1002 NOSIG
  • 031620Z 01006KT 330V050 CAVOK 24/10 Q1002 NOSIG

TAF TAF ELLX
Valide du 03 à 18h jusqu'au 05 à 00h UTC


031700Z 0318/0424 32007KT 9999 SCT050TCU
TEMPO 0318/0405 SHRA FEW015 SCT035CB
PROB40
TEMPO 0318/0322 33015G25KT 4000 TSRA SCT015 BKN035CB
TEMPO 0409/0418 SHRA SCT010 SCT030CB
PROB40
TEMPO 0410/0415 4000 TSRA SCT010 BKN030CB
ATIS : +352 4798 27300
Météo : +352 4798 27010 / 27050



MET'MAP, la Météo Aéronautique d'un coup d'oeil ! - Copyright ORBIFLY Décembre 2007 - Disclaimer

ORBIFLY MET'MAP TEAM :

Programmation & Développement : Alexandra Zaïnal
Sur une idée originale de : Baudouin d'Aumeries
Assistance à la programmation : Marc-Olivier Méhu
Soutien technique & logistique : Manuel Goepfert

Contact : metmap@orbifly.com




SOURCES & CREDITS :

   NOAA